createdAt,value
2023-01-20T00:01:49.295Z,99050.16
2023-01-20T00:04:21.649Z,99043.28
2023-01-20T00:06:51.374Z,99051.00
2023-01-20T00:09:20.707Z,99046.72
2023-01-20T00:11:50.045Z,99042.44
2023-01-20T00:14:19.400Z,99047.59
2023-01-20T00:16:48.505Z,99049.28
2023-01-20T00:19:20.507Z,99041.59
2023-01-20T00:21:50.136Z,99052.72
2023-01-20T00:24:19.469Z,99047.56
2023-01-20T00:26:48.592Z,99038.16
2023-01-20T00:29:17.900Z,99038.16
2023-01-20T00:31:47.290Z,99040.75
2023-01-20T00:34:16.528Z,99036.41
2023-01-20T00:36:45.616Z,99029.59
2023-01-20T00:39:14.818Z,99026.13
2023-01-20T00:41:43.985Z,99023.56
2023-01-20T00:44:12.836Z,99031.28
2023-01-20T00:46:42.122Z,99029.59
2023-01-20T00:49:12.232Z,99022.72
2023-01-20T00:51:41.244Z,99022.72
2023-01-20T00:54:10.746Z,99026.13
2023-01-20T00:56:40.186Z,99021.84
2023-01-20T00:59:11.753Z,99014.16
2023-01-20T01:01:42.230Z,99026.19
2023-01-20T01:04:12.625Z,99027.00
2023-01-20T01:06:44.956Z,99029.59
2023-01-20T01:09:14.877Z,99027.91
2023-01-20T01:11:48.891Z,99033.91
2023-01-20T01:14:20.136Z,99031.31
2023-01-20T01:16:50.611Z,99037.31
2023-01-20T01:19:21.050Z,99032.16
2023-01-20T01:21:51.110Z,99039.88
2023-01-20T01:24:20.597Z,99047.56
2023-01-20T01:26:51.017Z,99050.16
2023-01-20T01:29:20.396Z,99047.59
2023-01-20T01:31:49.913Z,99049.31
2023-01-20T01:34:19.242Z,99042.44
2023-01-20T01:36:48.837Z,99049.31
2023-01-20T01:39:18.049Z,99061.28
2023-01-20T01:41:47.276Z,99070.72
2023-01-20T01:44:16.868Z,99074.19
2023-01-20T01:46:46.019Z,99077.63
2023-01-20T01:49:24.213Z,99083.63
2023-01-20T01:52:05.476Z,99082.78
2023-01-20T01:54:41.506Z,99084.50
2023-01-20T01:57:11.416Z,99081.06
2023-01-20T01:59:41.119Z,99080.19
2023-01-20T02:02:10.604Z,99075.88
2023-01-20T02:04:39.922Z,99077.63
2023-01-20T02:07:19.344Z,99084.50
2023-01-20T02:09:49.454Z,99073.31
2023-01-20T02:12:22.167Z,99073.34
2023-01-20T02:14:56.126Z,99077.66
2023-01-20T02:17:31.687Z,99075.06
2023-01-20T02:20:38.574Z,99075.94
2023-01-20T02:23:15.975Z,99081.03
2023-01-20T02:26:06.561Z,99086.22
2023-01-20T02:28:52.829Z,99087.94
2023-01-20T02:31:34.843Z,99091.38
2023-01-20T02:34:13.071Z,99094.75
2023-01-20T02:37:20.231Z,99109.38
2023-01-20T02:39:55.358Z,99111.06
2023-01-20T02:42:45.007Z,99117.06
2023-01-20T02:45:37.937Z,99127.34
2023-01-20T02:48:14.541Z,99143.69
2023-01-20T02:51:05.309Z,99154.72
2023-01-20T02:53:42.032Z,99153.91
2023-01-20T02:56:14.303Z,99159.94
2023-01-20T02:59:14.587Z,99165.94
2023-01-20T03:02:17.990Z,99167.66
2023-01-20T03:04:54.160Z,99171.97
2023-01-20T03:07:28.300Z,99175.41
2023-01-20T03:10:02.811Z,99181.38
2023-01-20T03:12:42.328Z,99182.25
2023-01-20T03:15:13.137Z,99178.84
2023-01-20T03:17:43.053Z,99174.56
2023-01-20T03:20:12.734Z,99180.56
2023-01-20T03:22:42.605Z,99180.56
2023-01-20T03:25:16.070Z,99184.03
2023-01-20T03:27:45.651Z,99182.28
2023-01-20T03:30:16.830Z,99180.59
2023-01-20T03:32:50.053Z,99177.16
2023-01-20T03:35:20.133Z,99178.84
2023-01-20T03:37:49.571Z,99172.88
2023-01-20T03:40:19.292Z,99174.59
2023-01-20T03:42:58.602Z,99186.63
2023-01-20T03:45:54.393Z,99192.66
2023-01-20T03:48:45.358Z,99202.94
2023-01-20T03:51:27.401Z,99207.25
2023-01-20T03:54:14.462Z,99211.53
2023-01-20T03:57:13.669Z,99215.81
2023-01-20T03:59:46.027Z,99223.53
2023-01-20T04:02:15.989Z,99226.97
2023-01-20T04:04:48.645Z,99228.69
2023-01-20T04:07:23.425Z,99233.91
2023-01-20T04:09:55.839Z,99241.56
2023-01-20T04:12:25.346Z,99233.84
2023-01-20T04:14:54.602Z,99247.56
2023-01-20T04:17:31.165Z,99239.91
2023-01-20T04:20:11.549Z,99244.19
2023-01-20T04:22:42.822Z,99251.91
2023-01-20T04:25:32.288Z,99255.41
2023-01-20T04:28:02.209Z,99260.53
2023-01-20T04:30:31.536Z,99266.56
2023-01-20T04:33:01.163Z,99280.28
2023-01-20T04:35:30.453Z,99279.34
2023-01-20T04:38:00.098Z,99277.69
2023-01-20T04:40:29.631Z,99285.38
2023-01-20T04:42:59.002Z,99287.13
2023-01-20T04:45:28.763Z,99282.03
2023-01-20T04:47:58.603Z,99290.59
2023-01-20T04:50:28.020Z,99299.19
2023-01-20T04:53:00.623Z,99303.50
2023-01-20T04:55:30.688Z,99305.22
2023-01-20T04:58:00.462Z,99306.06
2023-01-20T05:00:30.221Z,99302.63
2023-01-20T05:03:00.214Z,99306.94
2023-01-20T05:05:30.248Z,99306.94
2023-01-20T05:08:00.731Z,99303.50
2023-01-20T05:10:30.807Z,99311.25
2023-01-20T05:13:00.514Z,99317.25
2023-01-20T05:15:30.057Z,99318.09
2023-01-20T05:17:59.592Z,99318.97
2023-01-20T05:20:30.394Z,99323.28
2023-01-20T05:23:01.358Z,99323.25
2023-01-20T05:25:31.140Z,99321.56
2023-01-20T05:28:02.978Z,99323.28
2023-01-20T05:30:32.411Z,99312.09
2023-01-20T05:33:02.204Z,99320.72
2023-01-20T05:35:32.101Z,99314.69
2023-01-20T05:38:01.385Z,99314.69
2023-01-20T05:40:31.055Z,99316.41
2023-01-20T05:43:04.322Z,99318.13
2023-01-20T05:45:34.474Z,99318.09
2023-01-20T05:48:04.347Z,99306.94
2023-01-20T05:50:33.725Z,99315.53
2023-01-20T05:53:03.287Z,99308.66
2023-01-20T05:55:33.396Z,99307.81
2023-01-20T05:58:06.274Z,99304.34
2023-01-20T06:00:36.421Z,99303.53
2023-01-20T06:03:06.861Z,99300.91
2023-01-20T06:05:37.204Z,99297.50
2023-01-20T06:08:06.972Z,99284.59
2023-01-20T06:10:37.083Z,99288.91
2023-01-20T06:13:06.540Z,99283.75
2023-01-20T06:15:35.771Z,99288.91
2023-01-20T06:18:05.283Z,99279.44
2023-01-20T06:20:34.655Z,99280.31
2023-01-20T06:23:03.955Z,99292.34
2023-01-20T06:25:33.715Z,99288.03
2023-01-20T06:28:03.713Z,99277.72
2023-01-20T06:30:33.058Z,99275.16
2023-01-20T06:33:02.627Z,99271.72
2023-01-20T06:35:34.709Z,99272.56
2023-01-20T06:38:04.220Z,99261.38
2023-01-20T06:40:34.270Z,99262.25
2023-01-20T06:43:04.153Z,99259.69
2023-01-20T06:45:33.485Z,99256.25
2023-01-20T06:48:02.971Z,99246.78
2023-01-20T06:50:35.506Z,99254.50
2023-01-20T06:53:04.875Z,99254.53
2023-01-20T06:55:34.411Z,99251.91
2023-01-20T06:58:03.515Z,99254.53
2023-01-20T07:00:32.741Z,99246.78
2023-01-20T07:03:02.028Z,99247.66
2023-01-20T07:05:31.068Z,99245.06
2023-01-20T07:08:00.467Z,99239.06
2023-01-20T07:10:29.616Z,99231.34
2023-01-20T07:12:59.068Z,99225.31
2023-01-20T07:15:28.338Z,99214.19
2023-01-20T07:17:58.034Z,99213.31
2023-01-20T07:20:27.355Z,99215.03
2023-01-20T07:22:56.589Z,99205.59
2023-01-20T07:25:26.431Z,99210.75
2023-01-20T07:27:56.326Z,99209.00
2023-01-20T07:30:26.687Z,99199.53
2023-01-20T07:32:56.160Z,99198.72
2023-01-20T07:35:25.540Z,99192.72
2023-01-20T07:37:55.008Z,99196.97
2023-01-20T07:40:24.489Z,99188.41
2023-01-20T07:42:53.148Z,99194.38
2023-01-20T07:45:22.562Z,99190.97
2023-01-20T07:47:51.959Z,99187.56
2023-01-20T07:50:21.332Z,99181.53
2023-01-20T07:52:50.815Z,99178.06
2023-01-20T07:55:20.603Z,99178.09
2023-01-20T07:57:50.015Z,99173.81
2023-01-20T08:00:22.503Z,99167.78
2023-01-20T08:02:51.866Z,99177.25
2023-01-20T08:05:21.604Z,99178.97
2023-01-20T08:07:55.126Z,99175.53
2023-01-20T08:10:24.643Z,99168.66
2023-01-20T08:12:54.352Z,99166.94
2023-01-20T08:15:24.104Z,99166.09
2023-01-20T08:17:58.573Z,99166.91
2023-01-20T08:20:28.575Z,99168.63
2023-01-20T08:22:58.241Z,99160.91
2023-01-20T08:25:28.451Z,99163.47
2023-01-20T08:27:58.135Z,99165.19
2023-01-20T08:30:27.666Z,99166.00
2023-01-20T08:32:57.708Z,99155.69
2023-01-20T08:35:27.672Z,99159.97
2023-01-20T08:37:57.249Z,99156.53
2023-01-20T08:40:26.898Z,99154.03
2023-01-20T08:42:56.544Z,99151.44
2023-01-20T08:45:26.399Z,99150.50
2023-01-20T08:47:56.365Z,99154.03
2023-01-20T08:50:26.275Z,99158.34
2023-01-20T08:52:55.975Z,99143.72
2023-01-20T08:55:25.658Z,99148.84
2023-01-20T08:57:55.199Z,99147.97
2023-01-20T09:00:25.106Z,99140.25
2023-01-20T09:02:55.193Z,99146.22
2023-01-20T09:05:25.154Z,99140.91
2023-01-20T09:07:54.786Z,99146.09
2023-01-20T09:10:24.701Z,99136.56
2023-01-20T09:12:54.019Z,99142.63
2023-01-20T09:15:25.641Z,99139.13
2023-01-20T09:17:55.934Z,99136.59
2023-01-20T09:20:25.939Z,99142.50
2023-01-20T09:22:55.573Z,99146.88
2023-01-20T09:25:24.987Z,99143.53
2023-01-20T09:27:54.683Z,99135.81
2023-01-20T09:30:24.248Z,99133.22
2023-01-20T09:32:56.652Z,99136.63
2023-01-20T09:35:26.550Z,99123.78
2023-01-20T09:38:14.725Z,99132.22
2023-01-20T09:41:25.498Z,99132.09
2023-01-20T09:44:02.986Z,99129.72
2023-01-20T09:46:45.341Z,99133.13
2023-01-20T09:49:56.297Z,99121.97
2023-01-20T09:52:53.616Z,99124.28
2023-01-20T09:55:45.497Z,99128.53
2023-01-20T09:58:31.529Z,99125.13
2023-01-20T10:01:32.051Z,99131.19
2023-01-20T10:04:33.849Z,99130.09
2023-01-20T10:07:15.452Z,99136.34
2023-01-20T10:10:00.768Z,99137.19
2023-01-20T10:12:30.007Z,99129.19
2023-01-20T10:15:13.748Z,99130.88
2023-01-20T10:18:01.776Z,99120.66
2023-01-20T10:20:58.724Z,99135.38
2023-01-20T10:23:53.544Z,99134.59
2023-01-20T10:26:40.881Z,99135.41
2023-01-20T10:29:19.468Z,99132.00
2023-01-20T10:32:25.458Z,99138.81
2023-01-20T10:34:59.513Z,99141.63
2023-01-20T10:37:31.664Z,99129.63
2023-01-20T10:40:35.315Z,99137.28
2023-01-20T10:43:16.865Z,99140.72
2023-01-20T10:45:56.259Z,99140.66
2023-01-20T10:48:33.467Z,99142.38
2023-01-20T10:51:02.947Z,99142.53
2023-01-20T10:53:51.854Z,99143.38
2023-01-20T10:56:36.414Z,99153.69
2023-01-20T10:59:17.291Z,99149.38
2023-01-20T11:02:02.526Z,99154.63
2023-01-20T11:04:40.874Z,99152.16
2023-01-20T11:07:19.695Z,99154.72
2023-01-20T11:09:50.381Z,99159.06
2023-01-20T11:12:27.509Z,99160.75
2023-01-20T11:15:01.242Z,99153.09
2023-01-20T11:17:30.954Z,99160.00
2023-01-20T11:20:08.191Z,99156.53
2023-01-20T11:22:39.601Z,99148.81
2023-01-20T11:25:26.888Z,99149.63
2023-01-20T11:27:56.574Z,99154.81
2023-01-20T11:30:35.740Z,99157.34
2023-01-20T11:33:18.066Z,99156.53
2023-01-20T11:36:06.437Z,99159.97
2023-01-20T11:38:50.419Z,99166.88
2023-01-20T11:41:31.420Z,99164.34
2023-01-20T11:44:02.608Z,99165.22
2023-01-20T11:46:39.565Z,99161.78
2023-01-20T11:49:23.359Z,99160.03
2023-01-20T11:51:59.678Z,99159.19
2023-01-20T11:54:31.758Z,99160.06
2023-01-20T11:57:08.743Z,99167.78
2023-01-20T11:59:47.820Z,99164.38
2023-01-20T12:02:17.399Z,99166.06
2023-01-20T12:04:54.220Z,99164.34
2023-01-20T12:07:47.871Z,99165.22
2023-01-20T12:10:29.725Z,99165.22
2023-01-20T12:13:19.003Z,99178.94
2023-01-20T12:15:55.992Z,99184.97
2023-01-20T12:18:31.796Z,99180.69
2023-01-20T12:21:10.474Z,99182.38
2023-01-20T12:23:46.738Z,99187.53
2023-01-20T12:26:19.514Z,99192.69
2023-01-20T12:29:09.134Z,99190.97
2023-01-20T12:31:39.035Z,99191.81
2023-01-20T12:34:22.516Z,99201.31
2023-01-20T12:37:12.979Z,99196.97
2023-01-20T12:39:48.485Z,99202.94
2023-01-20T12:42:36.297Z,99202.94
2023-01-20T12:45:12.392Z,99211.56
2023-01-20T12:48:18.879Z,99215.84
2023-01-20T12:51:09.305Z,99213.25
2023-01-20T12:53:44.786Z,99220.97
2023-01-20T12:56:47.767Z,99212.41
2023-01-20T12:59:45.312Z,99214.97
2023-01-20T13:02:17.891Z,99218.38
2023-01-20T13:04:47.002Z,99222.72
2023-01-20T13:07:16.828Z,99226.97
2023-01-20T13:09:58.529Z,99229.53
2023-01-20T13:12:52.525Z,99227.81
2023-01-20T13:15:38.137Z,99233.84
2023-01-20T13:18:26.403Z,99235.56
2023-01-20T13:20:57.184Z,99226.13
2023-01-20T13:23:34.948Z,99226.09
2023-01-20T13:26:06.780Z,99230.41
2023-01-20T13:28:36.597Z,99227.81
2023-01-20T13:31:38.211Z,99222.69
2023-01-20T13:34:23.512Z,99214.09
2023-01-20T13:37:05.308Z,99211.53
2023-01-20T13:39:47.167Z,99220.06
2023-01-20T13:42:38.053Z,99216.63
2023-01-20T13:45:13.934Z,99215.75
2023-01-20T13:48:08.384Z,99214.91
2023-01-20T13:50:40.261Z,99219.97
2023-01-20T13:53:12.790Z,99214.03
2023-01-20T13:55:50.555Z,99219.19
2023-01-20T13:58:27.222Z,99220.91
2023-01-20T14:01:00.900Z,99226.88
2023-01-20T14:03:31.704Z,99226.03
2023-01-20T14:06:19.670Z,99229.44
2023-01-20T14:08:51.800Z,99232.88
2023-01-20T14:11:24.371Z,99234.59
2023-01-20T14:13:53.546Z,99231.22
2023-01-20T14:16:30.677Z,99231.22
2023-01-20T14:19:36.379Z,99236.34
2023-01-20T14:22:24.980Z,99232.06
2023-01-20T14:25:01.226Z,99235.47
2023-01-20T14:27:34.534Z,99238.91
2023-01-20T14:30:26.249Z,99237.22
2023-01-20T14:32:56.098Z,99241.44
2023-01-20T14:35:35.240Z,99245.81
2023-01-20T14:38:05.147Z,99250.06
2023-01-20T14:40:37.457Z,99250.91
2023-01-20T14:43:21.449Z,99247.53
2023-01-20T14:45:55.975Z,99249.19
2023-01-20T14:48:34.532Z,99253.47
2023-01-20T14:51:07.054Z,99250.91
2023-01-20T14:53:37.428Z,99262.88
2023-01-20T14:56:20.311Z,99256.06
2023-01-20T14:58:50.389Z,99257.84
2023-01-20T15:01:25.891Z,99260.38
2023-01-20T15:04:04.226Z,99256.94
2023-01-20T15:06:34.000Z,99254.31
2023-01-20T15:09:06.927Z,99264.63
2023-01-20T15:11:37.894Z,99261.16
2023-01-20T15:14:11.848Z,99265.44
2023-01-20T15:16:48.648Z,99271.41
2023-01-20T15:19:18.582Z,99272.28
2023-01-20T15:21:51.282Z,99280.03
2023-01-20T15:24:22.043Z,99269.81
2023-01-20T15:26:53.808Z,99288.63
2023-01-20T15:29:28.241Z,99286.00
2023-01-20T15:32:00.315Z,99291.19
2023-01-20T15:34:30.901Z,99280.78
2023-01-20T15:37:00.747Z,99283.41
2023-01-20T15:39:31.326Z,99278.28
2023-01-20T15:42:02.665Z,99278.28
2023-01-20T15:44:32.414Z,99280.84
2023-01-20T15:47:02.417Z,99285.16
2023-01-20T15:49:31.896Z,99286.84
2023-01-20T15:52:01.518Z,99283.41
2023-01-20T15:54:31.083Z,99285.09
2023-01-20T15:57:01.671Z,99286.88
2023-01-20T15:59:33.626Z,99283.41
2023-01-20T16:02:03.651Z,99279.16
2023-01-20T16:04:33.514Z,99282.53
2023-01-20T16:07:03.145Z,99276.53
2023-01-20T16:09:38.386Z,99273.13
2023-01-20T16:12:08.101Z,99275.69
2023-01-20T16:14:40.549Z,99279.94
2023-01-20T16:17:17.475Z,99273.19
2023-01-20T16:19:47.875Z,99285.09
2023-01-20T16:22:18.504Z,99284.25
2023-01-20T16:24:50.426Z,99283.41
2023-01-20T16:27:24.923Z,99285.16
2023-01-20T16:29:57.271Z,99279.06
2023-01-20T16:32:28.253Z,99280.81
2023-01-20T16:34:58.853Z,99276.53
2023-01-20T16:37:29.621Z,99273.13
2023-01-20T16:40:00.748Z,99273.13
2023-01-20T16:42:32.761Z,99273.97
2023-01-20T16:45:06.989Z,99273.91
2023-01-20T16:47:37.525Z,99271.38
2023-01-20T16:50:08.597Z,99278.25
2023-01-20T16:52:38.868Z,99279.91
2023-01-20T16:55:11.603Z,99266.22
2023-01-20T16:57:45.172Z,99265.28
2023-01-20T17:00:18.694Z,99261.00
2023-01-20T17:02:55.641Z,99256.75
2023-01-20T17:05:29.274Z,99261.00
2023-01-20T17:08:01.591Z,99261.84
2023-01-20T17:10:36.719Z,99261.03
2023-01-20T17:13:14.591Z,99258.47
2023-01-20T17:15:45.192Z,99260.88
2023-01-20T17:18:15.577Z,99267.81
2023-01-20T17:20:46.052Z,99271.22
2023-01-20T17:23:19.966Z,99267.84
2023-01-20T17:25:50.583Z,99264.44
2023-01-20T17:28:20.953Z,99267.84
2023-01-20T17:30:51.592Z,99265.28
2023-01-20T17:33:22.089Z,99263.50
2023-01-20T17:36:05.456Z,99255.03
2023-01-20T17:38:37.526Z,99257.56
2023-01-20T17:41:16.786Z,99254.94
2023-01-20T17:43:50.922Z,99252.31
2023-01-20T17:46:23.759Z,99254.03
2023-01-20T17:48:54.365Z,99259.91
2023-01-20T17:51:27.202Z,99259.13
2023-01-20T17:54:03.415Z,99255.69
2023-01-20T17:56:34.495Z,99260.75
2023-01-20T17:59:09.120Z,99270.88
2023-01-20T18:01:45.542Z,99268.25
2023-01-20T18:04:16.196Z,99268.38
2023-01-20T18:06:52.171Z,99265.81
2023-01-20T18:09:22.841Z,99271.81
2023-01-20T18:11:53.447Z,99273.53
2023-01-20T18:14:23.823Z,99276.97
2023-01-20T18:16:55.704Z,99273.47
2023-01-20T18:19:25.994Z,99271.72
2023-01-20T18:21:56.313Z,99265.72
2023-01-20T18:24:26.531Z,99260.56
2023-01-20T18:26:57.937Z,99263.97
2023-01-20T18:29:31.091Z,99269.09
2023-01-20T18:32:01.186Z,99266.50
2023-01-20T18:34:31.063Z,99266.47
2023-01-20T18:37:00.813Z,99263.06
2023-01-20T18:39:31.259Z,99262.16
2023-01-20T18:42:01.451Z,99258.72
2023-01-20T18:44:31.607Z,99261.06
2023-01-20T18:47:01.481Z,99260.25
2023-01-20T18:52:51.243Z,99249.06
2023-01-20T18:55:20.935Z,99255.94
2023-01-20T18:57:50.449Z,99248.22
2023-01-20T19:00:20.516Z,99254.22
2023-01-20T19:02:53.739Z,99241.22
2023-01-20T19:05:23.409Z,99240.22
2023-01-20T19:07:53.488Z,99235.22
2023-01-20T19:10:23.080Z,99239.34
2023-01-20T19:12:53.885Z,99229.94
2023-01-20T19:15:23.353Z,99239.88
2023-01-20T19:17:56.110Z,99227.91
2023-01-20T19:20:25.896Z,99227.13
2023-01-20T19:22:55.394Z,99230.56
2023-01-20T19:25:30.714Z,99220.19
2023-01-20T19:28:00.360Z,99232.22
2023-01-20T19:30:30.367Z,99231.34
2023-01-20T19:32:59.749Z,99236.31
2023-01-20T19:35:31.402Z,99227.19
2023-01-20T19:38:01.102Z,99224.56
2023-01-20T19:40:30.617Z,99233.44
2023-01-20T19:43:02.169Z,99235.25
2023-01-20T19:45:44.879Z,99232.31
2023-01-20T19:48:15.468Z,99230.66
2023-01-20T19:50:45.345Z,99229.31
2023-01-20T19:53:14.940Z,99231.72
2023-01-20T19:55:44.596Z,99238.53
2023-01-20T19:58:14.076Z,99239.50
2023-01-20T20:00:43.520Z,99241.31
2023-01-20T20:03:13.170Z,99245.47
2023-01-20T20:05:42.628Z,99238.97
2023-01-20T20:08:12.319Z,99233.28
2023-01-20T20:10:45.141Z,99224.88
2023-01-20T20:13:14.671Z,99232.34
2023-01-20T20:15:44.185Z,99228.56
2023-01-20T20:18:13.840Z,99243.53
2023-01-20T20:20:46.220Z,99242.06
2023-01-20T20:23:15.782Z,99232.81
2023-01-20T20:25:51.167Z,99225.50
2023-01-20T20:28:20.782Z,99224.44
2023-01-20T20:30:50.245Z,99228.81
2023-01-20T20:33:20.411Z,99236.03
2023-01-20T20:35:50.488Z,99242.25
2023-01-20T20:38:20.410Z,99230.47
2023-01-20T20:40:50.093Z,99220.00
2023-01-20T20:43:24.061Z,99218.06
2023-01-20T20:46:00.566Z,99213.84
2023-01-20T20:48:30.983Z,99215.28
2023-01-20T20:51:07.236Z,99220.88
2023-01-20T20:53:37.118Z,99220.00
2023-01-20T20:56:11.884Z,99208.94
2023-01-20T20:58:55.532Z,99205.44
2023-01-20T21:01:29.917Z,99204.50
2023-01-20T21:04:01.575Z,99205.56
2023-01-20T21:06:32.018Z,99206.47
2023-01-20T21:09:02.046Z,99207.13
2023-01-20T21:11:31.594Z,99206.00
2023-01-20T21:14:01.131Z,99205.22
2023-01-20T21:16:31.038Z,99211.66
2023-01-20T21:19:02.383Z,99206.91
2023-01-20T21:21:32.066Z,99210.16
2023-01-20T21:24:01.394Z,99206.97
2023-01-20T21:26:31.140Z,99195.06
2023-01-20T21:29:04.949Z,99193.28
2023-01-20T21:31:35.671Z,99192.41
2023-01-20T21:34:05.510Z,99187.22
2023-01-20T21:36:35.748Z,99188.94
2023-01-20T21:39:06.451Z,99190.66
2023-01-20T21:41:36.237Z,99185.22
2023-01-20T21:44:23.886Z,99182.00
2023-01-20T21:46:53.586Z,99180.22
2023-01-20T21:49:41.303Z,99181.94
2023-01-20T21:52:34.602Z,99177.94
2023-01-20T21:55:05.476Z,99178.78
2023-01-20T21:57:35.291Z,99175.88
2023-01-20T22:00:08.161Z,99176.22
2023-01-20T22:02:48.130Z,99183.03
2023-01-20T22:05:17.827Z,99185.78
2023-01-20T22:07:49.153Z,99179.06
2023-01-20T22:10:18.984Z,99175.97
2023-01-20T22:12:48.813Z,99184.19
2023-01-20T22:15:18.499Z,99182.53
2023-01-20T22:17:48.759Z,99178.34
2023-01-20T22:20:19.028Z,99173.72
2023-01-20T22:22:48.687Z,99174.16
2023-01-20T22:25:18.200Z,99166.09
2023-01-20T22:27:50.286Z,99162.16
2023-01-20T22:30:20.372Z,99162.84
2023-01-20T22:32:50.143Z,99170.63
2023-01-20T22:35:19.707Z,99159.50
2023-01-20T22:37:49.154Z,99163.63
2023-01-20T22:40:18.880Z,99155.06
2023-01-20T22:42:48.626Z,99154.38
2023-01-20T22:45:18.131Z,99150.44
2023-01-20T22:47:47.618Z,99159.97
2023-01-20T22:50:17.686Z,99151.63
2023-01-20T22:52:47.669Z,99145.94
2023-01-20T22:55:17.517Z,99149.16
2023-01-20T22:57:47.282Z,99153.59
2023-01-20T23:00:18.768Z,99146.31
2023-01-20T23:02:48.790Z,99152.56
2023-01-20T23:05:18.476Z,99151.69
2023-01-20T23:07:48.140Z,99144.16
2023-01-20T23:10:37.696Z,99144.94
2023-01-20T23:13:07.506Z,99142.94
2023-01-20T23:15:36.839Z,99145.66
2023-01-20T23:18:06.957Z,99148.97
2023-01-20T23:20:36.820Z,99143.94
2023-01-20T23:23:06.910Z,99144.84
2023-01-20T23:25:36.901Z,99152.56
2023-01-20T23:28:06.708Z,99149.06
2023-01-20T23:30:36.326Z,99154.00
2023-01-20T23:33:06.553Z,99152.97
2023-01-20T23:35:39.936Z,99152.28
2023-01-20T23:38:10.752Z,99157.31
2023-01-20T23:40:40.255Z,99151.38
2023-01-20T23:43:10.171Z,99152.25
2023-01-20T23:45:39.769Z,99152.78
2023-01-20T23:48:09.335Z,99144.47
2023-01-20T23:50:39.275Z,99142.75
2023-01-20T23:53:08.637Z,99147.00
2023-01-20T23:55:38.969Z,99155.78
2023-01-20T23:58:08.571Z,99156.69
